HKJKHTMW

Guest
Details From HKJK - Nairobi Jomo Kanyatta Intl
To HTMW - MWANZA
Flight Number -
Tags generated
Created
Modified
Stats Distance 324 nm / 599 km
Max Altitude 22,800 ft / 6,949 m
Waypoints 6
Social Downloads 1
Likes 0
Share VATSIM

Download

Looking for another format? Having issues loading an existing format? Contact us
Advertisement - Login to hide

Notes

Basic altitude profile: - Ascent Rate: 1500ft/min - Ascent Speed: 250kts - Cruise Altitude: 28000ft - Cruise Speed: 420kts - Descent Rate: 1500ft/min - Descent Speed: 250kts Options: - Use NATs: yes - Use PACOTS: no - Use low airways: yes - Use high airways: no

Route

HKJK ODLAM A609 ALKON LABAT HTMW

ID Type Via Altitude Latitude Longitude Leg Dist Tot Dist Heading (true) Name
O HKJK APT - 0 ft / 0 m -1.31707˚ 36.93076˚ - 0 nm - Nairobi Jomo Kanyatta Intl
ODLAM FIX - 22,800 ft / 6,949 m -0.98596˚ 35.91748˚ 64 nm 64 nm 288° / 288° -
MELMO FIX A609 (AWY-LO) 14,500 ft / 4,420 m -0.60265˚ 34.58411˚ 83 nm 147 nm 286° / 286° -
ALKON FIX A609 (AWY-LO) 14,500 ft / 4,420 m -0.43599˚ 33.96743˚ 38 nm 185 nm 285° / 285° -
LABAT FIX - 18,700 ft / 5,700 m -1.00266˚ 33.45875˚ 45 nm 231 nm 222° / 222° -
O HTMW APT - 0 ft / 0 m -2.44448˚ 32.93266˚ 92 nm 323 nm 200° / 200° MWANZA

Altitude Profile

Advertisement - Login to hide

Weather


0- 5 10 15 20 25 30 35+ Temperature / ° C

Clouds and Precipitation
Forecast for 2018-05-22 12:00 UTC. Updated 3 hours ago

Ground ~20,000 ft ~40,000 ft Winds

HKJK

Details ICAO HKJK (NBO)
Name Nairobi Jomo Kanyatta Intl
Region Kenya
Timezone Africa/Nairobi (UTC+3.0)
Stats Elevation 5,330 ft / 1,625 m (AMSL)
Location -1.317073° 36.930757°
Runways 1
Magnetic Variation 0.591° E

METAR

HKJK 221400Z 13009KT 9999 FEW020CB SCT023 BKN080 21/15 Q1021

Decode

TAF

TAF HKJK 220500Z 2206/2312 18005KT 9999 SCT020 BKN080 TEMPO 2212/2218 16010KT SCT023 BKN024 BECMG 2220/2223 17005KT SCT021 BKN080 TEMPO 2300/2306 -DZ SCT007 BKN015 BECMG 2308/2311 18010KT BKN024

Decode

Departure Runways

ID Width Length Bearing (true) Bearing (mag) Surface Threshold Offset Overrun Length
06 148 ft / 45 m 13,215 ft / 4,028 m 53.90° 53.31° Asphalt 0 ft / 0 m 194 ft / 59 m
24 148 ft / 45 m 13,215 ft / 4,028 m 233.90° 233.31° Asphalt 0 ft / 0 m 197 ft / 60 m

HTMW

Details ICAO HTMW (MWZ)
Name MWANZA
Region Tanzania
Timezone Africa/Dar_es_Salaam (UTC+3.0)
Stats Elevation 3,763 ft / 1,147 m (AMSL)
Location -2.444485° 32.932665°
Runways 1
Magnetic Variation 0.891° E

METAR

HTMW 221400Z 32017KT 9999 FEW022 FEW023CB BKN120 25/19 Q1016 NOSIG

Decode

TAF

TAF HTMW 221100Z 2212/2312 33010KT 9999 FEW023 FEW024CB BKN120 BECMG 224/2301 00000KT BECMG 2310/2312 SCT026 FEW027CB

Decode

Destination Runways

ID Width Length Bearing (true) Bearing (mag) Surface Threshold Offset Overrun Length
12 148 ft / 45 m 10,223 ft / 3,116 m 116.54° 115.65° Asphalt 300 ft / 91 m 615 ft / 187 m
30 148 ft / 45 m 10,223 ft / 3,116 m 296.54° 295.65° Asphalt 0 ft / 0 m 0 ft / 0 m

Popular Alternatives